Time;durP1;ratioP1;P1;durP2;ratioP2;P2;SDS_P1;SDS_P2;PMS_P1;PMS_P2;Temp;Humidity;BMP_temperature;BMP_pressure;BME280_temperature;BME280_humidity;BME280_pressure;Samples;Min_cycle;Max_cycle;Signal;HPM_P1;HPM_P2
2023/10/02 00:01:18;;;;;;;1076.50;992.83;;;13.40;99.90;;;;;;5133329;27;20551;-75
2023/10/02 00:03:48;;;;;;;1070.67;987.57;;;13.40;99.90;;;;;;5133072;27;20978;-75
2023/10/02 00:06:16;;;;;;;1060.33;977.40;;;13.40;99.90;;;;;;5133502;27;20444;-75
2023/10/02 00:08:49;;;;;;;1069.13;986.87;;;13.40;99.90;;;;;;5133123;28;20535;-75
2023/10/02 00:11:40;;;;;;;1068.70;987.20;;;13.40;99.90;;;;;;5133362;28;20470;-75
2023/10/02 00:14:19;;;;;;;1056.13;976.27;;;13.30;99.90;;;;;;5133446;28;20819;-75
2023/10/02 00:16:59;;;;;;;1059.43;977.30;;;13.30;99.90;;;;;;5133175;28;20460;-75
2023/10/02 00:19:35;;;;;;;1063.43;981.07;;;13.30;99.90;;;;;;5133750;27;20471;-77
2023/10/02 00:22:05;;;;;;;1051.70;969.10;;;13.30;99.90;;;;;;5137488;27;20946;-77
2023/10/02 00:24:37;;;;;;;1046.07;964.43;;;13.30;99.90;;;;;;5137420;27;20939;-77
2023/10/02 00:27:05;;;;;;;1053.03;970.67;;;13.30;99.90;;;;;;5137747;27;20452;-77
2023/10/02 00:29:32;;;;;;;1051.37;969.30;;;13.30;99.90;;;;;;5137119;27;20446;-77
2023/10/02 00:32:00;;;;;;;1046.00;965.30;;;13.30;99.90;;;;;;5136922;27;20443;-77
2023/10/02 00:34:33;;;;;;;1054.80;971.80;;;13.30;99.90;;;;;;5137302;27;20472;-77
2023/10/02 00:37:12;;;;;;;1046.60;962.70;;;13.30;99.90;;;;;;5137385;27;20475;-77
2023/10/02 00:39:41;;;;;;;1042.10;959.27;;;13.30;99.90;;;;;;5137058;27;20792;-75
2023/10/02 00:42:24;;;;;;;1060.50;976.50;;;13.30;99.90;;;;;;5136827;27;20445;-77
2023/10/02 00:44:52;;;;;;;1049.93;967.03;;;13.30;99.90;;;;;;5137338;27;20451;-77
2023/10/02 00:47:38;;;;;;;1050.77;967.87;;;13.30;99.90;;;;;;5137145;27;20455;-77
2023/10/02 00:50:16;;;;;;;1050.20;967.30;;;13.40;99.90;;;;;;5136812;27;20919;-77
2023/10/02 00:52:48;;;;;;;1053.67;969.00;;;13.30;99.90;;;;;;5136683;27;20447;-77
2023/10/02 00:55:20;;;;;;;1042.70;958.73;;;13.40;99.90;;;;;;5136825;27;20454;-77
2023/10/02 00:57:51;;;;;;;1052.20;969.70;;;13.40;99.90;;;;;;5136814;27;20958;-77
2023/10/02 01:00:20;;;;;;;1058.40;975.00;;;13.30;99.90;;;;;;5136526;27;20840;-75
2023/10/02 01:02:49;;;;;;;1054.50;971.57;;;13.30;99.90;;;;;;5136490;27;20455;-76
2023/10/02 01:05:21;;;;;;;1034.70;951.77;;;13.30;99.90;;;;;;5136585;27;20454;-76
2023/10/02 01:07:53;;;;;;;1046.77;964.60;;;13.30;99.90;;;;;;5136463;27;20496;-76
2023/10/02 01:10:23;;;;;;;1047.33;964.37;;;13.20;99.90;;;;;;5136165;27;20444;-76
2023/10/02 01:13:01;;;;;;;1049.60;964.83;;;13.30;99.90;;;;;;5136737;27;20454;-76
2023/10/02 01:15:29;;;;;;;1050.10;963.90;;;13.30;99.90;;;;;;5136361;27;20452;-76
2023/10/02 01:18:18;;;;;;;1048.60;964.20;;;13.30;99.90;;;;;;5136567;27;20459;-76
2023/10/02 01:20:48;;;;;;;1058.53;972.47;;;13.30;99.90;;;;;;5135791;27;20979;-75
2023/10/02 01:23:17;;;;;;;1053.50;967.40;;;13.30;99.90;;;;;;5136309;27;20538;-75
2023/10/02 01:25:47;;;;;;;1046.63;960.60;;;13.20;99.90;;;;;;5136128;27;20452;-76
2023/10/02 01:28:15;;;;;;;1053.00;967.70;;;13.20;99.90;;;;;;5136432;27;20868;-76
2023/10/02 01:30:44;;;;;;;1037.07;953.73;;;13.20;99.90;;;;;;5135652;27;20445;-75
2023/10/02 01:33:14;;;;;;;1041.93;955.67;;;13.10;99.90;;;;;;5135717;27;20443;-76
2023/10/02 01:35:48;;;;;;;1058.80;969.80;;;13.10;99.90;;;;;;5136130;27;20444;-76
2023/10/02 01:38:18;;;;;;;1046.50;957.53;;;13.10;99.90;;;;;;5136046;27;20500;-76
2023/10/02 01:40:49;;;;;;;1058.70;967.00;;;13.10;99.90;;;;;;5135870;27;20537;-76
2023/10/02 01:43:19;;;;;;;1043.53;954.27;;;13.10;99.90;;;;;;5136024;27;20811;-76
2023/10/02 01:45:48;;;;;;;1043.27;952.40;;;13.10;99.90;;;;;;5135819;27;20458;-76
2023/10/02 01:48:36;;;;;;;1039.83;950.47;;;13.20;99.90;;;;;;5135742;27;20446;-76
2023/10/02 01:51:15;;;;;;;1054.30;959.63;;;13.20;99.90;;;;;;5135893;27;20815;-76
2023/10/02 01:53:43;;;;;;;1048.83;955.43;;;13.20;99.90;;;;;;5135500;27;20444;-76
2023/10/02 01:56:13;;;;;;;1046.23;955.50;;;13.20;99.90;;;;;;5135673;27;20935;-76
2023/10/02 01:58:40;;;;;;;1038.37;948.53;;;13.10;99.90;;;;;;5135487;27;20531;-76
2023/10/02 02:01:09;;;;;;;1046.80;955.50;;;13.10;99.90;;;;;;5135171;27;20539;-76
2023/10/02 02:03:37;;;;;;;1041.00;948.97;;;13.10;99.90;;;;;;5135224;27;20464;-76
2023/10/02 02:06:09;;;;;;;1032.00;941.23;;;13.20;99.90;;;;;;5135492;27;21022;-76
2023/10/02 02:08:38;;;;;;;1035.80;943.73;;;13.20;99.90;;;;;;5134905;27;20444;-76
2023/10/02 02:11:18;;;;;;;1030.00;938.00;;;13.20;99.90;;;;;;5135732;27;20487;-76
2023/10/02 02:13:48;;;;;;;1041.10;947.70;;;13.20;99.90;;;;;;5135140;27;20448;-76
2023/10/02 02:16:16;;;;;;;1038.47;946.60;;;13.20;99.90;;;;;;5135501;27;20534;-76
2023/10/02 02:18:45;;;;;;;1033.73;943.13;;;13.20;99.90;;;;;;5134926;27;20541;-76
2023/10/02 02:21:19;;;;;;;1035.37;945.40;;;13.10;99.90;;;;;;5135060;27;20535;-76
2023/10/02 02:23:47;;;;;;;1031.07;942.90;;;13.10;99.90;;;;;;5135447;27;20983;-76
2023/10/02 02:26:21;;;;;;;1044.97;956.60;;;13.10;99.90;;;;;;5134470;27;20450;-76
2023/10/02 02:28:51;;;;;;;1040.00;950.33;;;13.00;99.90;;;;;;5134815;27;20443;-76
2023/10/02 02:31:31;;;;;;;1032.50;941.50;;;13.10;99.90;;;;;;5135117;27;20478;-76
2023/10/02 02:34:03;;;;;;;1032.30;940.30;;;13.10;99.90;;;;;;5134963;27;20448;-76
2023/10/02 02:36:34;;;;;;;1029.73;938.17;;;13.10;99.90;;;;;;5134985;27;20497;-76
2023/10/02 02:39:15;;;;;;;1035.30;942.17;;;13.10;99.90;;;;;;5134471;27;20772;-76
2023/10/02 02:41:43;;;;;;;1025.87;932.73;;;13.20;99.90;;;;;;5134279;27;20473;-76
2023/10/02 02:44:29;;;;;;;1034.10;941.50;;;13.20;99.90;;;;;;5133505;27;20450;-76
2023/10/02 02:46:56;;;;;;;1030.47;940.07;;;13.20;99.90;;;;;;5134894;27;20554;-76
2023/10/02 02:49:25;;;;;;;1033.40;941.67;;;13.10;99.90;;;;;;5134392;27;20448;-76
2023/10/02 02:51:55;;;;;;;1033.17;941.77;;;13.10;99.90;;;;;;5134155;27;20444;-76
2023/10/02 02:54:27;;;;;;;1030.40;940.80;;;13.10;99.90;;;;;;5134641;27;20448;-77
2023/10/02 02:56:58;;;;;;;1039.80;948.90;;;13.10;99.90;;;;;;5134594;27;20483;-76
2023/10/02 02:59:28;;;;;;;1037.27;946.57;;;13.10;99.90;;;;;;5134561;27;20560;-76
2023/10/02 03:02:08;;;;;;;1040.73;949.40;;;13.00;99.90;;;;;;5133850;27;20448;-76
2023/10/02 03:04:38;;;;;;;1040.80;947.97;;;13.00;99.90;;;;;;5134506;27;20439;-76
2023/10/02 03:07:22;;;;;;;1039.73;946.70;;;13.00;99.90;;;;;;5134288;27;20448;-76
2023/10/02 03:09:49;;;;;;;1032.73;939.97;;;13.00;99.90;;;;;;5134560;27;20614;-76
2023/10/02 03:12:18;;;;;;;1036.13;942.33;;;12.90;99.90;;;;;;5133662;27;20444;-76
2023/10/02 03:14:46;;;;;;;1035.33;941.40;;;12.90;99.90;;;;;;5134242;27;20803;-76
2023/10/02 03:17:31;;;;;;;1032.37;940.67;;;12.90;99.90;;;;;;5134250;27;20479;-76
2023/10/02 03:20:00;;;;;;;1030.20;936.80;;;12.90;99.90;;;;;;5134373;27;20471;-76
2023/10/02 03:22:33;;;;;;;1032.30;935.20;;;12.90;99.90;;;;;;5133603;27;20818;-76
2023/10/02 03:25:25;;;;;;;1024.20;926.37;;;12.90;99.90;;;;;;5134274;27;20977;-76
2023/10/02 03:27:49;;;;;;;1027.90;930.93;;;12.80;99.90;;;;;;5133575;27;20528;-76
2023/10/02 03:30:35;;;;;;;1030.63;936.67;;;12.80;99.90;;;;;;5133488;27;20825;-76
2023/10/02 03:33:03;;;;;;;1036.03;934.70;;;12.70;99.90;;;;;;5133545;27;20505;-76
2023/10/02 03:35:38;;;;;;;1023.03;918.93;;;12.80;99.90;;;;;;5133971;27;20455;-76
2023/10/02 03:38:05;;;;;;;1011.53;908.57;;;12.90;99.90;;;;;;5133670;27;21014;-76
2023/10/02 03:40:32;;;;;;;1017.57;913.97;;;13.00;99.90;;;;;;5133341;27;20467;-76
2023/10/02 03:43:18;;;;;;;1021.57;918.00;;;13.10;99.90;;;;;;5133522;27;20538;-76
2023/10/02 03:45:51;;;;;;;1023.17;920.77;;;13.10;99.90;;;;;;5132996;27;20942;-76
2023/10/02 03:48:18;;;;;;;1019.67;916.87;;;13.10;99.90;;;;;;5133135;27;20483;-76
2023/10/02 03:50:45;;;;;;;1023.43;919.03;;;13.00;99.90;;;;;;5133118;27;20472;-76
2023/10/02 03:53:28;;;;;;;1024.30;919.80;;;13.10;99.90;;;;;;5133359;27;20539;-76
2023/10/02 03:55:59;;;;;;;1015.43;910.13;;;13.00;99.90;;;;;;5132604;27;20455;-76
2023/10/02 03:58:38;;;;;;;1013.63;905.73;;;13.10;99.90;;;;;;5133604;27;20447;-76
2023/10/02 04:01:08;;;;;;;1028.30;919.10;;;13.20;99.90;;;;;;5133134;27;20440;-76
2023/10/02 04:03:52;;;;;;;1020.33;913.20;;;13.10;99.90;;;;;;5133343;27;20968;-76
2023/10/02 04:06:33;;;;;;;1021.80;914.40;;;13.10;99.90;;;;;;5133216;27;20428;-76
2023/10/02 04:09:09;;;;;;;1010.73;904.00;;;13.20;99.90;;;;;;5133244;28;20440;-76
2023/10/02 04:11:39;;;;;;;1009.53;904.20;;;13.20;99.90;;;;;;5132908;28;20550;-77
2023/10/02 04:14:17;;;;;;;1011.07;905.80;;;13.20;99.90;;;;;;5133457;28;20527;-76
2023/10/02 04:16:48;;;;;;;1020.03;912.87;;;13.10;99.90;;;;;;5131949;28;20469;-76
2023/10/02 04:19:15;;;;;;;1013.67;909.17;;;13.20;99.90;;;;;;5133319;28;20448;-76
2023/10/02 04:21:45;;;;;;;1012.17;907.00;;;13.10;99.90;;;;;;5132854;28;20943;-76
2023/10/02 04:24:12;;;;;;;1015.57;911.30;;;13.10;99.90;;;;;;5133099;28;20448;-76
2023/10/02 04:26:41;;;;;;;1016.57;912.47;;;13.10;99.90;;;;;;5133266;28;20444;-76
2023/10/02 04:29:15;;;;;;;1023.73;919.07;;;13.10;99.90;;;;;;5133080;28;20447;-76
2023/10/02 04:31:44;;;;;;;1015.57;912.20;;;13.10;99.90;;;;;;5132769;28;20468;-76
2023/10/02 04:34:29;;;;;;;1019.13;915.80;;;13.10;99.90;;;;;;5133342;28;20446;-76
2023/10/02 04:36:55;;;;;;;1019.50;916.00;;;13.00;99.90;;;;;;5133153;28;20454;-76
2023/10/02 04:42:18;;;;;;;1016.37;911.93;;;13.00;99.90;;;;;;5132991;28;20428;-76
2023/10/02 04:44:46;;;;;;;1011.77;906.73;;;13.00;99.90;;;;;;5133053;28;20486;-76
2023/10/02 04:47:17;;;;;;;1016.83;911.50;;;12.90;99.90;;;;;;5132987;28;20531;-76
2023/10/02 04:53:04;;;;;;;1022.33;915.47;;;13.00;99.90;;;;;;5130593;27;20517;-75
2023/10/02 04:55:32;;;;;;;1015.60;909.07;;;13.10;99.90;;;;;;5130926;27;20837;-76
2023/10/02 04:58:08;;;;;;;1013.53;906.27;;;13.10;99.90;;;;;;5130364;27;20440;-76
2023/10/02 05:00:36;;;;;;;1008.77;902.23;;;13.10;99.90;;;;;;5130035;28;20438;-76
2023/10/02 05:05:55;;;;;;;1009.03;902.27;;;13.10;99.90;;;;;;5109379;27;20443;-76
2023/10/02 05:08:33;;;;;;;993.33;888.00;;;13.10;99.90;;;;;;5130092;28;20454;-76
2023/10/02 05:11:05;;;;;;;1016.90;912.80;;;13.10;99.90;;;;;;5130059;28;20521;-77
2023/10/02 05:16:26;;;;;;;995.27;889.93;;;13.00;99.90;;;;;;5130865;27;20491;-76
2023/10/02 05:18:56;;;;;;;1005.87;901.20;;;13.00;99.90;;;;;;5130256;28;20505;-76
2023/10/02 05:21:35;;;;;;;991.97;887.27;;;13.00;99.90;;;;;;5128695;28;20448;-76
2023/10/02 05:24:05;;;;;;;1000.87;895.70;;;12.90;99.90;;;;;;5130250;28;20448;-76
2023/10/02 05:26:36;;;;;;;1001.37;898.40;;;13.00;99.90;;;;;;5129492;28;21023;-76
2023/10/02 05:29:05;;;;;;;1000.20;896.30;;;13.00;99.90;;;;;;5129740;27;20470;-77
2023/10/02 05:31:35;;;;;;;998.17;894.83;;;13.00;99.90;;;;;;5129444;27;20476;-77
2023/10/02 05:34:07;;;;;;;1006.23;902.43;;;13.00;99.90;;;;;;5129619;28;20535;-76
2023/10/02 05:36:35;;;;;;;1002.10;899.03;;;12.90;99.90;;;;;;5129786;28;20508;-76
2023/10/02 05:39:28;;;;;;;990.13;887.40;;;12.90;99.90;;;;;;5114400;28;20531;-77
2023/10/02 05:42:05;;;;;;;999.97;895.67;;;12.90;99.90;;;;;;5121212;28;20489;-74
2023/10/02 05:44:33;;;;;;;991.50;885.83;;;12.80;99.90;;;;;;5113412;27;20447;-75
2023/10/02 05:47:05;;;;;;;986.13;880.23;;;12.80;99.90;;;;;;5129601;28;20476;-75
2023/10/02 05:49:33;;;;;;;985.57;879.50;;;12.80;99.90;;;;;;5128533;28;20448;-75
2023/10/02 05:52:02;;;;;;;976.60;870.43;;;12.90;99.90;;;;;;5128667;27;20472;-75
2023/10/02 05:54:35;;;;;;;985.97;880.03;;;12.90;99.90;;;;;;5129177;28;20444;-75
2023/10/02 05:57:13;;;;;;;982.63;877.73;;;12.90;99.90;;;;;;5129547;27;20483;-75
2023/10/02 05:59:48;;;;;;;973.53;869.43;;;12.90;99.90;;;;;;5129101;28;20598;-75
2023/10/02 06:02:18;;;;;;;972.73;867.93;;;13.00;99.90;;;;;;5125054;27;20444;-75
2023/10/02 06:04:47;;;;;;;962.67;857.20;;;13.00;99.90;;;;;;5115542;28;20848;-75
2023/10/02 06:07:19;;;;;;;971.00;866.07;;;13.00;99.90;;;;;;5115383;28;20519;-75
2023/10/02 06:09:47;;;;;;;964.17;859.20;;;13.10;99.90;;;;;;5115360;28;20502;-75
2023/10/02 06:12:15;;;;;;;965.93;861.47;;;13.10;99.90;;;;;;5095034;28;20481;-75
2023/10/02 06:14:43;;;;;;;967.77;863.37;;;13.20;99.90;;;;;;5100018;28;20543;-75
2023/10/02 06:17:11;;;;;;;958.63;855.93;;;13.30;99.90;;;;;;5115017;28;20453;-75
2023/10/02 06:19:44;;;;;;;962.87;860.33;;;13.30;99.90;;;;;;5114583;28;20449;-75
2023/10/02 06:22:14;;;;;;;967.37;863.63;;;13.30;99.90;;;;;;5114785;28;20536;-75
2023/10/02 06:24:42;;;;;;;971.97;868.10;;;13.40;99.90;;;;;;5114294;28;20453;-75
2023/10/02 06:27:16;;;;;;;974.23;871.63;;;13.50;99.90;;;;;;5115143;28;20444;-75
2023/10/02 06:29:47;;;;;;;971.10;869.37;;;13.60;99.90;;;;;;5115573;28;20798;-75
2023/10/02 06:32:19;;;;;;;963.07;860.60;;;13.60;99.90;;;;;;5114308;28;20555;-75
2023/10/02 06:34:47;;;;;;;960.17;856.90;;;13.70;99.90;;;;;;5114849;28;20449;-75
2023/10/02 06:37:16;;;;;;;965.07;863.67;;;13.80;99.90;;;;;;5115017;28;20448;-75
2023/10/02 06:39:46;;;;;;;957.43;857.27;;;13.90;99.90;;;;;;5114975;28;20501;-75
2023/10/02 06:42:17;;;;;;;973.33;874.50;;;14.00;99.90;;;;;;5114566;28;20441;-75
2023/10/02 06:44:53;;;;;;;975.33;876.97;;;14.10;99.90;;;;;;5114842;28;20457;-75
2023/10/02 06:47:23;;;;;;;977.53;880.87;;;14.20;99.90;;;;;;5114679;28;20454;-75
2023/10/02 06:49:52;;;;;;;983.30;888.03;;;14.30;99.90;;;;;;5114516;28;20445;-75
2023/10/02 06:52:19;;;;;;;979.10;886.43;;;14.30;99.90;;;;;;5114211;28;21038;-75
2023/10/02 06:54:48;;;;;;;975.77;884.60;;;14.40;99.90;;;;;;5114348;28;20444;-75
2023/10/02 06:57:20;;;;;;;979.60;890.37;;;14.60;99.90;;;;;;5114770;28;20456;-77
2023/10/02 06:59:55;;;;;;;980.47;892.97;;;14.60;99.90;;;;;;5114449;28;20474;-75
2023/10/02 07:02:24;;;;;;;980.97;896.50;;;14.70;99.90;;;;;;5114480;28;20448;-75
2023/10/02 07:04:52;;;;;;;976.20;893.47;;;14.80;99.90;;;;;;5113994;28;20452;-75
2023/10/02 07:07:24;;;;;;;975.33;893.87;;;14.90;99.90;;;;;;5114102;28;20444;-75
2023/10/02 07:09:52;;;;;;;962.17;883.53;;;15.00;99.90;;;;;;5114074;28;21026;-75
2023/10/02 07:12:20;;;;;;;971.90;894.00;;;15.10;99.90;;;;;;5113999;28;20487;-75
2023/10/02 07:14:49;;;;;;;963.30;889.13;;;15.20;99.90;;;;;;5112778;28;21021;-78
2023/10/02 07:17:22;;;;;;;946.13;876.65;;;15.30;99.90;;;;;;5114022;28;20496;-75
2023/10/02 07:19:52;;;;;;;921.00;856.90;;;15.30;99.90;;;;;;5112400;28;20458;-75
2023/10/02 07:22:23;;;;;;;866.57;807.93;;;15.40;99.90;;;;;;5093123;28;20448;-76
2023/10/02 07:24:52;;;;;;;864.53;809.70;;;15.40;99.90;;;;;;5093655;28;20456;-76
2023/10/02 07:27:25;;;;;;;861.47;807.17;;;15.50;99.90;;;;;;5093897;28;20445;-75
2023/10/02 07:29:56;;;;;;;865.93;811.03;;;15.50;99.90;;;;;;5093312;28;20543;-76
2023/10/02 07:32:25;;;;;;;852.53;799.00;;;15.60;99.90;;;;;;5092749;28;20480;-75
2023/10/02 07:34:53;;;;;;;852.67;799.77;;;15.70;99.90;;;;;;5093595;28;20454;-76
2023/10/02 07:37:22;;;;;;;868.77;813.10;;;15.80;99.90;;;;;;5093474;28;20523;-76
2023/10/02 07:39:57;;;;;;;859.00;804.20;;;15.80;99.90;;;;;;5093447;28;20445;-75
2023/10/02 07:42:31;;;;;;;871.23;815.43;;;16.00;99.90;;;;;;5093256;28;20451;-75
2023/10/02 07:45:11;;;;;;;825.83;775.10;;;16.20;99.90;;;;;;5093472;28;20453;-75
2023/10/02 07:47:55;;;;;;;784.73;739.97;;;16.20;99.90;;;;;;5093352;28;20502;-75
2023/10/02 07:50:33;;;;;;;773.73;731.67;;;16.30;99.90;;;;;;5093109;28;20461;-75
2023/10/02 07:53:04;;;;;;;734.83;696.83;;;16.40;99.90;;;;;;5092769;28;20567;-76
2023/10/02 07:55:32;;;;;;;760.90;720.87;;;16.50;99.90;;;;;;5093046;28;20446;-76
2023/10/02 07:58:01;;;;;;;716.57;680.87;;;16.50;99.90;;;;;;5093062;28;20447;-75
2023/10/02 08:00:37;;;;;;;670.67;639.87;;;16.60;99.90;;;;;;5092394;28;20456;-75
2023/10/02 08:03:29;;;;;;;642.93;613.10;;;16.80;99.90;;;;;;5092654;28;20447;-75
2023/10/02 08:05:56;;;;;;;571.17;546.10;;;16.90;99.90;;;;;;5092354;28;20447;-75
2023/10/02 08:08:31;;;;;;;530.67;508.73;;;17.00;99.90;;;;;;5093142;28;20520;-75
2023/10/02 08:11:01;;;;;;;529.70;507.23;;;17.10;99.90;;;;;;5092489;28;21011;-75
2023/10/02 08:13:32;;;;;;;533.73;510.60;;;17.20;99.90;;;;;;5092456;28;20571;-76
2023/10/02 08:16:08;;;;;;;454.73;436.70;;;17.40;99.90;;;;;;5092485;28;20460;-76
2023/10/02 08:18:55;;;;;;;471.33;452.27;;;17.60;99.90;;;;;;5092830;28;20945;-75
2023/10/02 08:21:33;;;;;;;452.87;434.83;;;17.70;99.90;;;;;;5092511;28;20532;-75
2023/10/02 08:24:03;;;;;;;430.63;413.53;;;17.90;99.90;;;;;;5092278;28;20457;-75
2023/10/02 08:26:38;;;;;;;303.87;292.87;;;18.10;99.90;;;;;;5092154;28;20446;-76
2023/10/02 08:29:08;;;;;;;176.70;169.07;;;18.30;99.90;;;;;;5092320;28;20458;-76
2023/10/02 08:31:39;;;;;;;129.90;123.53;;;18.50;99.90;;;;;;5092130;28;21085;-75
2023/10/02 08:34:13;;;;;;;64.93;60.00;;;18.80;99.90;;;;;;5091701;28;20452;-76
2023/10/02 08:36:41;;;;;;;38.60;32.60;;;19.10;99.90;;;;;;5092302;28;20817;-76
2023/10/02 08:39:09;;;;;;;29.33;17.43;;;19.30;99.90;;;;;;5092122;28;20446;-76
2023/10/02 08:41:43;;;;;;;21.93;14.93;;;19.60;99.90;;;;;;5091985;28;20441;-76
2023/10/02 08:44:13;;;;;;;30.80;13.97;;;20.00;99.90;;;;;;5092140;28;21013;-76
2023/10/02 08:46:42;;;;;;;25.97;15.03;;;20.40;99.90;;;;;;5092092;28;20452;-75
2023/10/02 08:49:11;;;;;;;27.03;14.47;;;20.80;99.90;;;;;;5092146;28;20441;-76
2023/10/02 08:51:39;;;;;;;23.50;12.77;;;21.20;99.90;;;;;;5091512;28;20453;-76
2023/10/02 08:54:07;;;;;;;24.40;13.37;;;21.70;99.90;;;;;;5091929;28;20943;-76
2023/10/02 08:56:43;;;;;;;25.53;13.67;;;21.90;97.50;;;;;;5091466;28;20864;-74
2023/10/02 08:59:26;;;;;;;24.80;13.93;;;22.10;92.50;;;;;;5091037;28;21048;-75
2023/10/02 09:02:08;;;;;;;24.50;12.93;;;22.50;92.70;;;;;;5091326;28;20818;-75
2023/10/02 09:04:35;;;;;;;24.80;13.40;;;22.70;88.50;;;;;;5091744;28;20532;-77
2023/10/02 09:07:14;;;;;;;20.50;13.10;;;23.00;84.90;;;;;;5091645;28;20500;-77
2023/10/02 09:09:47;;;;;;;29.53;14.57;;;23.40;83.80;;;;;;5091704;28;20445;-77
2023/10/02 09:12:15;;;;;;;23.50;13.03;;;23.80;73.60;;;;;;5091973;28;20476;-77
2023/10/02 09:14:44;;;;;;;24.63;13.40;;;23.90;73.70;;;;;;5092853;28;20503;-77
2023/10/02 09:17:18;;;;;;;24.70;12.60;;;24.30;65.80;;;;;;5092573;28;20451;-77
2023/10/02 09:19:50;;;;;;;24.00;13.87;;;24.50;65.90;;;;;;5092631;28;20449;-76
2023/10/02 09:22:18;;;;;;;23.70;13.23;;;24.80;62.10;;;;;;5092393;28;20494;-76
2023/10/02 09:24:55;;;;;;;22.20;14.27;;;25.00;57.90;;;;;;5092538;28;20485;-77
2023/10/02 09:27:28;;;;;;;25.35;15.02;;;25.00;56.30;;;;;;5091105;28;20449;-77
2023/10/02 09:30:19;;;;;;;20.50;13.30;;;25.60;51.10;;;;;;5091990;28;20207;-77
2023/10/02 09:32:50;;;;;;;24.00;13.43;;;25.80;52.40;;;;;;5091910;28;20526;-76
2023/10/02 09:35:29;;;;;;;25.37;13.07;;;26.10;42.70;;;;;;5092220;28;20453;-77
2023/10/02 09:38:02;;;;;;;21.40;13.40;;;26.20;40.80;;;;;;5093636;28;20441;-72
2023/10/02 09:40:53;;;;;;;20.57;12.00;;;26.20;40.80;;;;;;5096210;28;20579;-72
2023/10/02 09:43:20;;;;;;;25.40;13.33;;;26.30;40.90;;;;;;5095574;28;20953;-72
2023/10/02 09:45:50;;;;;;;30.07;14.23;;;26.70;35.70;;;;;;5095550;28;20452;-72
2023/10/02 09:51:28;;;;;;;21.57;13.37;;;27.50;32.50;;;;;;5033008;28;20538;-72
2023/10/02 09:54:08;;;;;;;26.07;13.33;;;27.40;28.30;;;;;;5083678;28;20480;-72
2023/10/02 09:56:53;;;;;;;23.30;12.87;;;27.80;24.80;;;;;;5095873;28;20445;-72
2023/10/02 09:59:22;;;;;;;23.80;13.40;;;28.10;25.00;;;;;;5095537;28;20813;-72
2023/10/02 10:08:27;;;;;;;23.77;13.40;;;28.40;17.70;;;;;;5095456;28;20903;-72
2023/10/02 10:10:57;;;;;;;25.77;13.83;;;28.70;17.80;;;;;;5095123;28;20449;-72
2023/10/02 10:13:31;;;;;;;26.73;14.60;;;28.90;14.60;;;;;;5095330;28;20484;-72
2023/10/02 10:16:34;;;;;;;30.93;14.87;;;29.20;10.50;;;;;;5095292;28;20444;-72
2023/10/02 10:19:30;;;;;;;22.40;13.07;;;29.40;12.60;;;;;;5094997;28;20444;-73
2023/10/02 10:21:57;;;;;;;24.77;14.07;;;29.80;10.80;;;;;;5094504;28;20451;-72
2023/10/02 10:24:58;;;;;;;25.20;14.80;;;30.00;9.10;;;;;;5093987;28;20912;-73
2023/10/02 10:27:54;;;;;;;23.10;13.50;;;30.00;3.00;;;;;;5095448;28;20285;-73
2023/10/02 10:30:50;;;;;;;23.67;14.10;;;30.30;3.20;;;;;;5095011;28;20460;-77
2023/10/02 10:33:36;;;;;;;23.33;14.20;;;30.40;3.20;;;;;;5059596;28;20484;-77
2023/10/02 10:36:25;;;;;;;23.23;14.00;;;30.60;3.30;;;;;;5094707;28;20453;-77
2023/10/02 10:38:54;;;;;;;25.80;15.03;;;30.80;3.40;;;;;;5094751;28;20932;-77
2023/10/02 10:41:32;;;;;;;21.43;13.10;;;31.00;1.00;;;;;;5094645;28;20457;-77
2023/10/02 10:44:06;;;;;;;23.17;13.63;;;31.30;1.00;;;;;;5094551;28;20473;-77
2023/10/02 10:46:37;;;;;;;22.43;13.67;;;31.40;1.00;;;;;;5094649;28;20831;-77
2023/10/02 10:49:08;;;;;;;25.63;15.37;;;31.80;1.00;;;;;;5094612;28;20449;-77
2023/10/02 10:51:36;;;;;;;27.77;14.37;;;32.00;1.00;;;;;;5094636;28;20815;-77
2023/10/02 10:54:13;;;;;;;27.57;15.17;;;32.20;1.00;;;;;;5094543;28;20445;-77
2023/10/02 10:56:44;;;;;;;23.60;14.10;;;32.20;1.00;;;;;;5094280;28;20502;-77
2023/10/02 10:59:12;;;;;;;25.00;13.83;;;32.60;1.00;;;;;;5094573;28;20534;-77
2023/10/02 11:01:39;;;;;;;24.97;15.87;;;32.40;1.00;;;;;;5094084;28;20540;-77
2023/10/02 11:04:06;;;;;;;25.67;14.50;;;32.90;1.00;;;;;;5094213;28;20513;-77
2023/10/02 11:06:41;;;;;;;28.73;13.87;;;32.70;1.00;;;;;;5094589;28;20437;-77
2023/10/02 11:09:16;;;;;;;26.30;15.30;;;32.50;1.00;;;;;;5094581;28;20460;-77
2023/10/02 11:11:50;;;;;;;25.10;14.37;;;32.50;1.00;;;;;;5094082;28;20452;-77
2023/10/02 11:14:20;;;;;;;23.43;13.60;;;32.70;1.00;;;;;;5094131;28;20448;-77
2023/10/02 11:16:51;;;;;;;24.50;14.80;;;32.30;1.00;;;;;;5094045;28;20441;-77
2023/10/02 11:19:34;;;;;;;26.97;13.50;;;32.40;1.00;;;;;;5093928;28;20464;-77
2023/10/02 11:22:15;;;;;;;25.50;14.27;;;33.20;1.00;;;;;;5093964;28;20453;-78
2023/10/02 11:24:45;;;;;;;25.87;14.80;;;33.00;1.00;;;;;;5093975;28;20919;-78
2023/10/02 11:27:14;;;;;;;27.20;15.47;;;33.10;1.00;;;;;;5093802;28;20477;-78
2023/10/02 11:29:42;;;;;;;21.93;13.03;;;33.70;1.00;;;;;;5093794;28;20442;-78
2023/10/02 11:32:22;;;;;;;24.40;14.53;;;34.10;1.00;;;;;;5093458;28;20468;-77
2023/10/02 11:34:51;;;;;;;26.70;15.23;;;34.50;1.00;;;;;;5093651;28;20445;-78
2023/10/02 11:37:23;;;;;;;23.00;12.97;;;34.20;1.00;;;;;;5093594;28;21014;-78
2023/10/02 11:39:55;;;;;;;24.30;14.10;;;34.30;1.00;;;;;;5093560;28;20427;-78
2023/10/02 11:42:23;;;;;;;23.60;14.67;;;34.20;1.00;;;;;;5093653;28;20449;-78
2023/10/02 11:44:50;;;;;;;24.57;15.10;;;34.30;1.00;;;;;;5093412;28;20457;-78
2023/10/02 11:47:17;;;;;;;25.73;14.33;;;34.00;1.00;;;;;;5093633;28;20785;-77
2023/10/02 11:49:44;;;;;;;23.80;14.17;;;33.80;1.00;;;;;;5093365;28;20923;-78
2023/10/02 11:52:11;;;;;;;23.00;13.27;;;33.70;1.00;;;;;;5093125;28;20457;-78
2023/10/02 11:54:39;;;;;;;24.43;14.53;;;34.30;1.00;;;;;;5093372;28;20540;-78
2023/10/02 11:57:09;;;;;;;25.17;14.30;;;34.20;1.00;;;;;;5093160;28;20426;-78
2023/10/02 11:59:42;;;;;;;25.80;14.13;;;33.90;1.00;;;;;;5093156;28;21003;-78
2023/10/02 12:02:11;;;;;;;22.57;13.70;;;34.40;1.00;;;;;;5092587;28;20941;-78
2023/10/02 12:04:38;;;;;;;20.47;13.10;;;34.80;1.00;;;;;;5093474;28;20488;-78
2023/10/02 12:07:05;;;;;;;24.27;14.73;;;34.70;1.00;;;;;;5093174;28;20474;-78
2023/10/02 12:09:35;;;;;;;22.13;14.00;;;35.30;1.00;;;;;;5092914;28;20945;-74
2023/10/02 12:12:03;;;;;;;23.30;14.10;;;35.70;1.00;;;;;;5092866;28;20478;-74
2023/10/02 12:14:32;;;;;;;20.70;13.23;;;35.30;1.00;;;;;;5093198;28;20453;-74
2023/10/02 12:16:59;;;;;;;27.17;14.40;;;35.60;1.00;;;;;;5092876;28;20453;-74
2023/10/02 12:19:26;;;;;;;21.50;13.83;;;35.60;1.00;;;;;;5092985;28;20511;-74
2023/10/02 12:21:53;;;;;;;22.33;13.70;;;35.40;1.00;;;;;;5092837;28;20528;-74
2023/10/02 12:24:21;;;;;;;19.97;12.50;;;35.00;1.00;;;;;;5092855;28;20504;-74
2023/10/02 12:26:49;;;;;;;23.23;14.07;;;34.70;1.00;;;;;;5093036;28;20452;-74
2023/10/02 12:29:16;;;;;;;25.23;14.00;;;34.80;1.00;;;;;;5092686;28;20428;-73
2023/10/02 12:31:45;;;;;;;23.60;14.05;;;34.30;1.00;;;;;;5092135;28;20427;-74
2023/10/02 12:34:13;;;;;;;20.42;13.43;;;35.20;1.00;;;;;;5091979;28;20440;-74
2023/10/02 12:36:41;;;;;;;22.70;13.20;;;35.60;1.00;;;;;;5092488;28;20191;-74
2023/10/02 12:39:12;;;;;;;21.93;12.97;;;35.30;1.00;;;;;;5092517;28;20453;-74
2023/10/02 12:41:41;;;;;;;27.23;13.13;;;35.30;1.00;;;;;;5092374;28;20446;-74
2023/10/02 12:44:09;;;;;;;24.27;12.40;;;35.20;1.00;;;;;;5092247;28;20481;-74
2023/10/02 12:46:43;;;;;;;21.60;12.23;;;35.30;1.00;;;;;;5092449;28;20925;-74
2023/10/02 12:49:13;;;;;;;23.37;13.20;;;35.40;1.00;;;;;;5092395;28;20517;-74
2023/10/02 12:51:41;;;;;;;21.23;12.67;;;35.30;1.00;;;;;;5092086;28;20452;-74
2023/10/02 12:54:07;;;;;;;24.30;12.80;;;35.40;1.00;;;;;;5092651;28;20416;-74
2023/10/02 12:56:36;;;;;;;20.10;12.50;;;35.90;1.00;;;;;;5092316;28;20461;-73
2023/10/02 12:59:04;;;;;;;21.80;12.27;;;36.00;1.00;;;;;;5092250;28;20937;-74
2023/10/02 13:01:31;;;;;;;22.67;11.53;;;35.90;1.00;;;;;;5092261;28;20540;-73